Time;durP1;ratioP1;P1;durP2;ratioP2;P2;SDS_P1;SDS_P2;PMS_P1;PMS_P2;Temp;Humidity;BMP_temperature;BMP_pressure;BME280_temperature;BME280_humidity;BME280_pressure;Samples;Min_cycle;Max_cycle;Signal;HPM_P1;HPM_P2
2022/05/12 00:01:12;;;;;;;5.47;2.67;;;18.00;92.70;;;;;;5068635;28;20462;-69
2022/05/12 00:03:40;;;;;;;3.67;2.50;;;18.00;93.20;;;;;;5069553;28;20452;-70
2022/05/12 00:06:08;;;;;;;7.43;3.53;;;18.00;93.20;;;;;;5069656;28;20446;-69
2022/05/12 00:08:35;;;;;;;3.93;2.53;;;17.90;93.30;;;;;;5070053;28;20449;-68
2022/05/12 00:11:03;;;;;;;5.07;3.00;;;18.00;93.40;;;;;;5068408;28;20869;-69
2022/05/12 00:13:29;;;;;;;7.87;2.90;;;18.00;93.30;;;;;;5067462;28;20442;-70
2022/05/12 00:15:58;;;;;;;3.20;2.87;;;18.00;93.50;;;;;;5066637;28;20438;-70
2022/05/12 00:18:25;;;;;;;2.73;2.13;;;18.10;93.60;;;;;;5064354;28;20438;-70
2022/05/12 00:20:54;;;;;;;4.03;3.07;;;18.10;93.50;;;;;;5063257;28;20988;-70
2022/05/12 00:23:23;;;;;;;4.33;2.97;;;18.10;93.30;;;;;;5063052;28;20524;-70
2022/05/12 00:25:51;;;;;;;4.70;2.70;;;18.10;93.40;;;;;;5061034;28;20442;-71
2022/05/12 00:28:20;;;;;;;3.67;2.77;;;18.10;93.50;;;;;;5059648;28;20819;-71
2022/05/12 00:30:49;;;;;;;3.50;2.90;;;18.00;93.50;;;;;;5058708;28;20445;-71
2022/05/12 00:33:16;;;;;;;5.57;2.93;;;18.00;93.30;;;;;;5058730;28;20878;-71
2022/05/12 00:35:44;;;;;;;8.13;3.57;;;17.90;92.80;;;;;;5057777;28;20453;-71
2022/05/12 00:38:13;;;;;;;7.20;3.00;;;17.90;92.50;;;;;;5057741;28;20458;-72
2022/05/12 00:40:42;;;;;;;4.47;3.10;;;17.80;92.40;;;;;;5058010;28;20835;-70
2022/05/12 00:43:30;;;;;;;4.60;2.43;;;17.80;92.10;;;;;;5058472;28;20465;-71
2022/05/12 00:45:58;;;;;;;4.00;2.77;;;17.80;92.20;;;;;;5058081;28;20449;-71
2022/05/12 00:48:24;;;;;;;5.90;2.80;;;17.70;91.90;;;;;;5059088;28;20453;-70
2022/05/12 00:50:52;;;;;;;6.87;3.00;;;17.70;91.90;;;;;;5059297;28;20437;-71
2022/05/12 00:53:20;;;;;;;4.80;3.30;;;17.70;91.90;;;;;;5060181;28;20507;-71
2022/05/12 00:55:48;;;;;;;4.33;3.17;;;17.70;92.10;;;;;;5059893;28;20449;-71
2022/05/12 00:58:18;;;;;;;2.90;2.57;;;17.70;92.10;;;;;;5059442;28;20504;-71
2022/05/12 01:00:45;;;;;;;6.17;2.73;;;17.70;92.20;;;;;;5059460;28;20477;-70
2022/05/12 01:03:17;;;;;;;4.40;2.60;;;17.80;92.40;;;;;;5060000;28;20438;-70
2022/05/12 01:05:45;;;;;;;4.83;3.23;;;17.70;92.20;;;;;;5064413;28;20425;-69
2022/05/12 01:08:13;;;;;;;5.30;3.00;;;17.70;92.40;;;;;;5063777;28;20477;-72
2022/05/12 01:10:40;;;;;;;3.83;2.97;;;17.70;92.20;;;;;;5062744;28;20545;-71
2022/05/12 01:13:07;;;;;;;3.77;3.20;;;17.70;91.90;;;;;;5062782;28;20453;-71
2022/05/12 01:15:34;;;;;;;5.27;3.47;;;17.60;91.70;;;;;;5063077;28;20472;-71
2022/05/12 01:18:04;;;;;;;6.67;3.37;;;17.60;91.70;;;;;;5062429;28;20632;-71
2022/05/12 01:20:33;;;;;;;3.50;2.80;;;17.50;91.50;;;;;;5063812;28;20481;-70
2022/05/12 01:23:02;;;;;;;4.97;3.60;;;17.50;91.50;;;;;;5062251;28;20477;-71
2022/05/12 01:25:31;;;;;;;6.07;3.97;;;17.40;91.50;;;;;;5063461;28;20456;-72
2022/05/12 01:27:58;;;;;;;4.13;3.77;;;17.30;91.60;;;;;;5062837;28;20937;-72
2022/05/12 01:30:26;;;;;;;6.70;4.10;;;17.20;91.50;;;;;;5062714;28;20445;-72
2022/05/12 01:32:53;;;;;;;5.20;4.63;;;17.20;91.60;;;;;;5061575;28;20480;-72
2022/05/12 01:35:22;;;;;;;9.23;5.07;;;17.10;91.60;;;;;;5062995;28;20507;-72
2022/05/12 01:37:49;;;;;;;10.87;4.40;;;17.20;91.50;;;;;;5062732;28;20459;-72
2022/05/12 01:40:20;;;;;;;5.67;4.07;;;17.20;91.40;;;;;;5063100;28;20867;-71
2022/05/12 01:42:48;;;;;;;8.57;4.10;;;17.10;91.30;;;;;;5063498;28;21019;-70
2022/05/12 01:45:16;;;;;;;6.90;4.03;;;17.20;91.40;;;;;;5063353;28;20464;-70
2022/05/12 01:47:43;;;;;;;5.30;4.53;;;17.20;91.20;;;;;;5063530;28;20488;-72
2022/05/12 01:50:13;;;;;;;5.13;4.20;;;17.20;91.20;;;;;;5063346;28;20461;-72
2022/05/12 01:52:43;;;;;;;5.93;4.70;;;17.20;91.10;;;;;;5063758;28;20992;-71
2022/05/12 01:55:10;;;;;;;6.70;4.40;;;17.20;91.20;;;;;;5063299;28;20503;-71
2022/05/12 01:57:37;;;;;;;5.17;4.63;;;17.20;91.00;;;;;;5063524;28;20817;-71
2022/05/12 02:00:07;;;;;;;7.00;4.30;;;17.20;91.00;;;;;;5063005;28;20488;-70
2022/05/12 02:02:33;;;;;;;7.13;5.07;;;17.10;90.80;;;;;;5064008;28;20481;-72
2022/05/12 02:05:00;;;;;;;9.37;4.30;;;17.10;90.70;;;;;;5063523;28;20450;-71
2022/05/12 02:07:27;;;;;;;6.33;4.60;;;17.10;90.60;;;;;;5063937;28;20460;-71
2022/05/12 02:09:54;;;;;;;4.83;4.10;;;17.00;90.70;;;;;;5063462;28;20449;-71
2022/05/12 02:12:21;;;;;;;7.00;4.67;;;17.00;90.80;;;;;;5057610;28;20992;-72
2022/05/12 02:14:47;;;;;;;6.83;4.63;;;17.00;90.60;;;;;;5055654;28;20957;-73
2022/05/12 02:17:15;;;;;;;6.20;4.63;;;17.00;90.40;;;;;;5056563;28;20461;-74
2022/05/12 02:19:42;;;;;;;5.67;4.30;;;17.00;90.30;;;;;;5056776;28;20481;-73
2022/05/12 02:22:10;;;;;;;5.50;4.40;;;17.10;90.20;;;;;;5056889;28;20473;-73
2022/05/12 02:24:36;;;;;;;5.23;4.43;;;17.10;89.90;;;;;;5055905;28;20453;-73
2022/05/12 02:27:04;;;;;;;6.10;4.70;;;17.20;89.20;;;;;;5055812;28;20449;-73
2022/05/12 02:29:31;;;;;;;5.60;4.60;;;17.20;89.10;;;;;;5055536;28;20507;-73
2022/05/12 02:31:58;;;;;;;6.53;4.37;;;17.30;89.00;;;;;;5055879;28;20477;-73
2022/05/12 02:34:26;;;;;;;5.80;4.57;;;17.30;88.70;;;;;;5055309;28;20448;-73
2022/05/12 02:37:00;;;;;;;5.90;4.60;;;17.20;88.50;;;;;;5056221;28;20426;-73
2022/05/12 02:39:28;;;;;;;4.40;4.00;;;17.20;88.50;;;;;;5055661;28;20433;-73
2022/05/12 02:41:55;;;;;;;8.83;5.27;;;17.30;88.40;;;;;;5055340;28;20516;-73
2022/05/12 02:44:22;;;;;;;6.90;5.63;;;17.30;88.00;;;;;;5055353;28;20519;-73
2022/05/12 02:46:49;;;;;;;5.03;4.50;;;17.20;87.70;;;;;;5055425;28;20450;-73
2022/05/12 02:49:16;;;;;;;6.83;5.10;;;17.10;87.40;;;;;;5055079;28;20469;-73
2022/05/12 02:51:44;;;;;;;5.80;4.90;;;17.00;87.50;;;;;;5055032;28;20473;-73
2022/05/12 02:54:11;;;;;;;5.70;5.10;;;17.00;87.60;;;;;;5054811;28;20953;-73
2022/05/12 02:56:39;;;;;;;7.97;5.27;;;17.00;87.60;;;;;;5055167;28;20473;-73
2022/05/12 02:59:06;;;;;;;5.50;4.63;;;17.00;87.40;;;;;;5055185;28;20484;-73
2022/05/12 03:01:33;;;;;;;5.40;4.80;;;17.00;87.00;;;;;;5054898;28;20490;-73
2022/05/12 03:04:01;;;;;;;5.30;4.33;;;17.10;86.80;;;;;;5055000;28;20538;-73
2022/05/12 03:06:28;;;;;;;8.10;4.53;;;17.10;86.60;;;;;;5059297;28;20457;-71
2022/05/12 03:08:58;;;;;;;5.53;5.03;;;17.00;86.70;;;;;;5062248;28;20832;-72
2022/05/12 03:11:25;;;;;;;5.27;4.10;;;17.00;86.70;;;;;;5062705;28;20484;-72
2022/05/12 03:13:52;;;;;;;5.10;4.60;;;17.00;86.70;;;;;;5062775;28;20995;-72
2022/05/12 03:16:20;;;;;;;6.53;4.83;;;17.00;87.80;;;;;;5054612;28;20842;-73
2022/05/12 03:18:49;;;;;;;6.23;4.57;;;17.10;86.70;;;;;;5054767;28;20458;-73
2022/05/12 03:21:16;;;;;;;5.67;4.77;;;17.00;85.90;;;;;;5054449;28;21007;-73
2022/05/12 03:23:44;;;;;;;7.33;5.43;;;17.10;86.00;;;;;;5054600;28;20461;-73
2022/05/12 03:26:12;;;;;;;8.73;4.33;;;17.10;85.80;;;;;;5053762;28;20454;-73
2022/05/12 03:28:40;;;;;;;5.20;4.70;;;17.10;85.70;;;;;;5054343;28;20942;-73
2022/05/12 03:31:07;;;;;;;8.70;5.13;;;17.00;85.40;;;;;;5054639;28;20469;-73
2022/05/12 03:33:36;;;;;;;6.17;4.50;;;17.00;85.50;;;;;;5054678;28;20503;-73
2022/05/12 03:36:03;;;;;;;6.20;5.47;;;17.00;85.00;;;;;;5054352;28;21055;-73
2022/05/12 03:38:30;;;;;;;8.10;4.60;;;16.90;84.50;;;;;;5054452;28;20445;-73
2022/05/12 03:40:57;;;;;;;5.97;5.37;;;17.00;84.60;;;;;;5054181;28;20484;-73
2022/05/12 03:46:09;;;;;;;5.53;4.10;;;16.90;83.90;;;;;;5054352;28;20491;-73
2022/05/12 03:48:38;;;;;;;6.10;4.90;;;16.90;83.70;;;;;;5054148;28;20453;-73
2022/05/12 03:51:05;;;;;;;5.23;4.73;;;16.90;83.80;;;;;;5054251;28;20473;-73
2022/05/12 03:53:33;;;;;;;5.20;4.50;;;16.80;83.60;;;;;;5054262;28;20457;-73
2022/05/12 03:56:00;;;;;;;4.57;4.00;;;16.80;83.70;;;;;;5053882;28;20434;-73
2022/05/12 03:58:28;;;;;;;6.57;4.17;;;16.80;83.40;;;;;;5054224;28;20510;-73
2022/05/12 04:00:55;;;;;;;8.17;4.60;;;16.80;83.20;;;;;;5053976;28;20489;-72
2022/05/12 04:03:22;;;;;;;7.00;4.80;;;16.70;83.10;;;;;;5055905;28;20450;-72
2022/05/12 04:05:49;;;;;;;4.70;4.20;;;16.70;83.50;;;;;;5058321;28;20458;-72
2022/05/12 04:08:17;;;;;;;5.07;4.57;;;16.70;83.40;;;;;;5064111;28;20445;-72
2022/05/12 04:10:44;;;;;;;6.50;4.53;;;16.60;83.70;;;;;;5060883;28;20450;-73
2022/05/12 04:13:11;;;;;;;5.83;4.77;;;16.60;83.90;;;;;;5059079;28;20460;-73
2022/05/12 04:15:39;;;;;;;7.87;4.10;;;16.50;84.10;;;;;;5057509;28;20476;-73
2022/05/12 04:18:07;;;;;;;5.63;4.63;;;16.50;85.20;;;;;;5055650;28;20971;-72
2022/05/12 04:20:37;;;;;;;6.80;4.47;;;16.50;84.80;;;;;;5053717;28;20484;-71
2022/05/12 04:23:05;;;;;;;7.47;4.50;;;16.40;85.30;;;;;;5053649;28;20450;-72
2022/05/12 04:25:32;;;;;;;11.67;4.70;;;16.50;85.60;;;;;;5053573;28;20453;-72
2022/05/12 04:27:59;;;;;;;13.63;5.23;;;16.50;85.50;;;;;;5053641;28;20445;-72
2022/05/12 04:30:27;;;;;;;9.07;4.40;;;16.40;85.50;;;;;;5053873;28;20433;-72
2022/05/12 04:35:09;;;;;;;7.03;4.37;;;16.40;85.40;;;;;;5053133;28;20474;-72
2022/05/12 04:35:42;;;;;;;7.50;4.50;;;16.40;85.50;;;;;;5053123;28;20789;-72
2022/05/12 04:38:10;;;;;;;6.10;4.20;;;16.40;85.80;;;;;;5053308;28;20442;-72
2022/05/12 04:40:39;;;;;;;7.40;3.83;;;16.40;86.10;;;;;;5053049;28;20584;-72
2022/05/12 04:43:06;;;;;;;7.30;4.07;;;16.40;86.20;;;;;;5053597;28;20442;-72
2022/05/12 04:45:34;;;;;;;7.67;3.93;;;16.40;86.40;;;;;;5054028;28;20429;-71
2022/05/12 04:48:04;;;;;;;5.70;3.70;;;16.40;86.80;;;;;;5053248;28;20457;-72
2022/05/12 04:50:32;;;;;;;6.40;4.00;;;16.40;86.70;;;;;;5053749;28;20445;-72
2022/05/12 04:53:00;;;;;;;3.97;3.07;;;16.40;86.70;;;;;;5054111;28;20556;-72
2022/05/12 04:55:27;;;;;;;6.60;3.37;;;16.40;86.70;;;;;;5053524;28;20976;-72
2022/05/12 04:57:56;;;;;;;7.10;4.10;;;16.50;86.90;;;;;;5054546;28;20442;-72
2022/05/12 05:00:26;;;;;;;11.63;3.50;;;16.40;86.70;;;;;;5054670;28;20616;-72
2022/05/12 05:02:53;;;;;;;6.80;3.10;;;16.40;86.80;;;;;;5054375;28;20474;-72
2022/05/12 05:05:21;;;;;;;4.33;2.90;;;16.40;86.80;;;;;;5055630;28;20450;-72
2022/05/12 05:07:48;;;;;;;8.67;3.03;;;16.30;86.80;;;;;;5054209;28;20453;-72
2022/05/12 05:10:15;;;;;;;5.67;2.83;;;16.30;86.70;;;;;;5053188;28;20933;-72
2022/05/12 05:12:42;;;;;;;9.43;3.60;;;16.30;86.70;;;;;;5053375;28;20476;-72
2022/05/12 05:15:11;;;;;;;5.80;3.57;;;16.20;86.60;;;;;;5053464;28;20449;-72
2022/05/12 05:17:38;;;;;;;7.50;3.60;;;16.20;87.20;;;;;;5053546;28;20456;-72
2022/05/12 05:20:07;;;;;;;5.60;3.40;;;16.20;87.80;;;;;;5054503;28;20460;-73
2022/05/12 05:22:36;;;;;;;9.80;3.10;;;16.20;88.30;;;;;;5054450;28;20485;-72
2022/05/12 05:25:03;;;;;;;6.40;3.50;;;16.10;88.50;;;;;;5054000;28;20458;-73
2022/05/12 05:27:30;;;;;;;5.90;3.57;;;16.10;88.80;;;;;;5054493;28;20460;-73
2022/05/12 05:29:58;;;;;;;6.27;3.00;;;16.10;88.60;;;;;;5054077;28;20461;-73
2022/05/12 05:32:27;;;;;;;8.83;3.57;;;16.10;88.00;;;;;;5053735;28;20469;-73
2022/05/12 05:34:54;;;;;;;6.80;3.63;;;16.10;87.20;;;;;;5053287;28;20474;-73
2022/05/12 05:37:21;;;;;;;8.60;3.60;;;16.10;86.30;;;;;;5053288;28;20461;-73
2022/05/12 05:39:50;;;;;;;9.30;4.10;;;16.10;87.00;;;;;;5053673;28;20477;-73
2022/05/12 05:42:19;;;;;;;8.73;4.37;;;16.20;87.60;;;;;;5053228;28;20496;-73
2022/05/12 05:44:46;;;;;;;15.23;4.57;;;16.20;86.80;;;;;;5053002;28;20473;-73
2022/05/12 05:47:13;;;;;;;9.63;4.13;;;16.20;87.70;;;;;;5053145;28;20450;-73
2022/05/12 05:49:41;;;;;;;15.50;6.77;;;16.20;86.80;;;;;;5054145;28;20450;-74
2022/05/12 05:54:54;;;;;;;13.07;6.70;;;16.20;88.70;;;;;;5056515;28;20413;-74
2022/05/12 05:57:25;;;;;;;8.53;7.03;;;16.30;89.20;;;;;;5056218;28;20449;-74
2022/05/12 05:59:53;;;;;;;15.90;7.90;;;16.30;88.80;;;;;;5056480;28;20442;-73
2022/05/12 06:02:20;;;;;;;9.13;8.10;;;16.40;89.40;;;;;;5056250;28;20485;-72
2022/05/12 06:04:47;;;;;;;11.50;7.37;;;16.40;90.00;;;;;;5056544;28;20514;-74
2022/05/12 06:07:15;;;;;;;13.50;7.90;;;16.50;90.20;;;;;;5056864;28;20532;-74
2022/05/12 06:09:42;;;;;;;11.87;8.10;;;16.50;90.50;;;;;;5056801;28;20448;-74
2022/05/12 06:12:11;;;;;;;14.80;8.73;;;16.50;90.40;;;;;;5056146;28;21028;-74
2022/05/12 06:14:38;;;;;;;9.30;8.37;;;16.50;90.50;;;;;;5056491;28;20452;-74
2022/05/12 06:17:05;;;;;;;21.53;10.43;;;16.60;90.80;;;;;;5056625;28;20829;-74
2022/05/12 06:19:32;;;;;;;19.30;9.43;;;16.60;91.10;;;;;;5056427;28;20446;-73
2022/05/12 06:22:00;;;;;;;16.10;12.20;;;16.70;91.10;;;;;;5056033;28;20486;-74
2022/05/12 06:24:27;;;;;;;19.37;13.67;;;16.70;90.90;;;;;;5056135;28;20969;-74
2022/05/12 06:26:53;;;;;;;15.50;12.27;;;16.70;91.30;;;;;;5056190;28;20445;-74
2022/05/12 06:29:21;;;;;;;19.03;13.30;;;16.80;91.00;;;;;;5056284;28;20450;-74
2022/05/12 06:31:48;;;;;;;16.80;11.87;;;16.90;90.80;;;;;;5056127;28;20458;-74
2022/05/12 06:34:15;;;;;;;15.37;12.03;;;16.90;90.80;;;;;;5055980;28;20450;-74
2022/05/12 06:36:43;;;;;;;14.50;11.43;;;17.00;90.80;;;;;;5055634;28;20955;-74
2022/05/12 06:39:11;;;;;;;14.97;11.20;;;17.10;90.50;;;;;;5055831;28;20471;-74
2022/05/12 06:41:38;;;;;;;20.30;13.00;;;17.10;89.70;;;;;;5055912;28;20489;-74
2022/05/12 06:44:05;;;;;;;16.10;11.17;;;17.10;89.60;;;;;;5055836;28;20465;-74
2022/05/12 06:46:33;;;;;;;16.10;11.57;;;17.20;89.50;;;;;;5055872;28;20449;-74
2022/05/12 06:49:02;;;;;;;13.57;10.50;;;17.30;89.00;;;;;;5055498;28;20894;-73
2022/05/12 06:51:29;;;;;;;13.90;12.23;;;17.50;88.20;;;;;;5055496;28;20473;-73
2022/05/12 06:53:56;;;;;;;17.73;9.70;;;17.60;87.60;;;;;;5055580;28;20445;-74
2022/05/12 06:56:23;;;;;;;11.73;9.93;;;17.60;85.20;;;;;;5055777;28;20492;-74
2022/05/12 06:58:50;;;;;;;10.53;9.23;;;17.70;84.80;;;;;;5055017;28;20445;-74
2022/05/12 07:01:17;;;;;;;12.97;9.67;;;17.70;84.00;;;;;;5053741;28;20497;-74
2022/05/12 07:03:45;;;;;;;11.10;9.73;;;17.80;83.80;;;;;;5055282;28;20449;-74
2022/05/12 07:06:12;;;;;;;12.83;10.60;;;17.80;80.90;;;;;;5055414;28;20453;-73
2022/05/12 07:08:41;;;;;;;12.53;10.63;;;17.90;81.50;;;;;;5055261;28;20461;-73
2022/05/12 07:11:08;;;;;;;10.83;9.33;;;18.00;82.20;;;;;;5054970;28;21003;-73
2022/05/12 07:13:35;;;;;;;12.83;9.47;;;18.10;79.60;;;;;;5055232;28;20457;-73
2022/05/12 07:16:04;;;;;;;11.23;8.70;;;18.20;77.80;;;;;;5055005;28;20449;-74
2022/05/12 07:18:31;;;;;;;12.63;9.50;;;18.30;77.30;;;;;;5054975;28;20456;-74
2022/05/12 07:26:36;;;;;;;10.97;8.33;;;18.50;79.60;;;;;;5055536;28;20406;-74
2022/05/12 07:29:04;;;;;;;9.13;7.70;;;18.70;77.60;;;;;;5055115;28;20437;-74
2022/05/12 07:31:31;;;;;;;11.63;8.07;;;18.70;73.80;;;;;;5055041;28;20478;-74
2022/05/12 07:33:58;;;;;;;9.20;7.40;;;18.80;74.20;;;;;;5055035;28;20456;-74
2022/05/12 07:36:28;;;;;;;8.93;7.33;;;18.80;72.70;;;;;;5054659;28;20863;-74
2022/05/12 07:38:57;;;;;;;10.33;6.20;;;18.90;71.30;;;;;;5054814;28;20440;-74
2022/05/12 07:41:24;;;;;;;8.40;6.40;;;19.10;69.70;;;;;;5054836;28;20489;-74
2022/05/12 07:43:52;;;;;;;6.80;6.10;;;19.10;69.40;;;;;;5054477;28;20461;-74
2022/05/12 07:46:23;;;;;;;10.93;7.37;;;19.20;69.30;;;;;;5055093;28;20500;-74
2022/05/12 07:48:50;;;;;;;13.23;8.53;;;19.20;69.60;;;;;;5054859;28;20444;-74
2022/05/12 07:51:18;;;;;;;9.13;7.13;;;19.30;69.50;;;;;;5054557;28;20469;-74
2022/05/12 07:53:48;;;;;;;10.03;5.90;;;19.40;69.50;;;;;;5054811;28;20465;-74
2022/05/12 07:56:15;;;;;;;11.00;5.87;;;19.50;66.70;;;;;;5054615;28;20449;-74
2022/05/12 07:58:42;;;;;;;9.13;5.30;;;19.60;65.90;;;;;;5054158;28;21006;-74
2022/05/12 08:01:10;;;;;;;7.67;6.07;;;19.70;64.40;;;;;;5054287;28;20466;-74
2022/05/12 08:03:37;;;;;;;6.07;4.10;;;19.80;65.30;;;;;;5054172;28;20544;-74
2022/05/12 08:06:04;;;;;;;7.90;5.43;;;19.90;63.20;;;;;;5054362;28;20481;-74
2022/05/12 08:08:31;;;;;;;5.70;3.90;;;20.00;61.50;;;;;;5054389;28;20824;-74
2022/05/12 08:11:00;;;;;;;4.77;4.33;;;20.10;63.10;;;;;;5054142;28;20532;-74
2022/05/12 08:13:27;;;;;;;8.20;6.20;;;20.20;60.90;;;;;;5053731;28;20453;-74
2022/05/12 08:15:55;;;;;;;7.50;5.43;;;20.30;61.70;;;;;;5053860;28;20446;-74
2022/05/12 08:18:24;;;;;;;8.40;7.10;;;20.40;61.10;;;;;;5053966;28;20457;-74
2022/05/12 08:20:51;;;;;;;8.50;7.70;;;20.60;60.50;;;;;;5053923;28;20449;-74
2022/05/12 08:23:19;;;;;;;10.50;7.97;;;20.70;60.50;;;;;;5053418;28;21030;-74
2022/05/12 08:25:47;;;;;;;12.23;7.43;;;20.80;61.60;;;;;;5053550;28;20957;-74
2022/05/12 08:28:19;;;;;;;6.47;5.60;;;21.00;62.10;;;;;;5053871;28;20457;-74
2022/05/12 08:30:46;;;;;;;11.20;6.20;;;21.10;59.60;;;;;;5053421;28;20909;-74
2022/05/12 08:33:13;;;;;;;6.33;5.70;;;21.20;59.00;;;;;;5053579;28;20450;-74
2022/05/12 08:35:42;;;;;;;8.53;4.40;;;21.20;57.70;;;;;;5053698;28;20457;-74
2022/05/12 08:38:09;;;;;;;7.17;5.67;;;21.20;55.70;;;;;;5053501;28;20477;-74
2022/05/12 08:40:42;;;;;;;6.87;6.17;;;21.20;56.90;;;;;;5053575;28;20452;-75
2022/05/12 08:43:14;;;;;;;8.03;5.00;;;21.20;56.70;;;;;;5053276;28;20819;-74
2022/05/12 08:45:44;;;;;;;7.23;5.63;;;21.30;56.10;;;;;;5053365;28;20508;-74
2022/05/12 08:48:13;;;;;;;6.37;5.70;;;21.50;56.50;;;;;;5053275;28;20507;-74
2022/05/12 08:50:40;;;;;;;8.47;5.73;;;21.80;56.80;;;;;;5053294;28;20445;-74
2022/05/12 08:53:13;;;;;;;8.77;5.77;;;21.90;55.80;;;;;;5053522;28;20473;-75
2022/05/12 08:55:46;;;;;;;8.17;4.90;;;21.80;54.60;;;;;;5053333;28;20433;-75
2022/05/12 08:58:20;;;;;;;5.10;4.00;;;21.70;55.40;;;;;;5053445;28;20437;-74
2022/05/12 09:01:00;;;;;;;6.30;4.30;;;21.80;54.70;;;;;;5053111;28;20437;-74
2022/05/12 09:03:38;;;;;;;5.63;3.63;;;22.00;54.40;;;;;;5052819;28;20995;-74
2022/05/12 09:06:10;;;;;;;4.80;3.53;;;22.20;55.00;;;;;;5054276;28;20441;-74
2022/05/12 09:08:46;;;;;;;7.97;4.00;;;22.40;53.60;;;;;;5058879;28;20469;-74
2022/05/12 09:11:20;;;;;;;5.43;3.30;;;22.50;53.90;;;;;;5058860;28;20476;-74
2022/05/12 09:13:49;;;;;;;3.67;3.07;;;22.50;53.50;;;;;;5061062;28;20539;-74
2022/05/12 09:16:20;;;;;;;3.50;2.77;;;22.60;52.10;;;;;;5061655;28;20480;-74
2022/05/12 09:18:47;;;;;;;4.23;3.00;;;22.70;52.20;;;;;;5064022;28;20831;-74
2022/05/12 09:21:23;;;;;;;4.17;2.57;;;22.80;50.50;;;;;;5062559;28;20473;-74
2022/05/12 09:23:50;;;;;;;5.17;2.83;;;23.00;50.20;;;;;;5069009;28;20430;-74
2022/05/12 09:26:40;;;;;;;4.07;2.93;;;23.30;49.70;;;;;;5078573;28;20441;-74
2022/05/12 09:29:22;;;;;;;4.83;2.80;;;23.80;47.60;;;;;;5071391;28;20402;-74
2022/05/12 09:31:53;;;;;;;8.10;3.00;;;24.00;46.10;;;;;;5073014;28;21082;-74
2022/05/12 09:34:29;;;;;;;5.87;3.10;;;24.20;46.10;;;;;;5070313;28;20442;-74
2022/05/12 09:36:56;;;;;;;3.37;2.20;;;24.30;45.10;;;;;;5067014;28;20433;-74
2022/05/12 09:39:36;;;;;;;3.23;2.20;;;24.40;45.20;;;;;;5070720;28;20472;-74
2022/05/12 09:42:04;;;;;;;2.63;1.77;;;24.20;43.80;;;;;;5067032;28;21023;-74
2022/05/12 09:44:33;;;;;;;4.40;2.00;;;23.80;44.00;;;;;;5068197;28;20499;-74
2022/05/12 09:47:06;;;;;;;3.13;1.97;;;23.30;44.20;;;;;;5066968;28;20878;-74
2022/05/12 09:49:35;;;;;;;4.10;2.20;;;23.00;45.30;;;;;;5066587;28;20909;-74
2022/05/12 09:52:29;;;;;;;6.10;2.47;;;22.80;47.00;;;;;;5069081;28;20538;-74
2022/05/12 09:55:17;;;;;;;7.97;2.57;;;22.60;47.10;;;;;;5068587;28;20506;-74
2022/05/12 09:57:54;;;;;;;7.20;2.77;;;22.40;48.00;;;;;;5067210;28;20438;-74
2022/05/12 10:00:33;;;;;;;2.67;2.30;;;22.30;48.70;;;;;;5069776;28;20438;-74
2022/05/12 10:09:04;;;;;;;3.90;1.50;;;22.90;44.00;;;;;;5064266;28;20420;-74
2022/05/12 10:11:35;;;;;;;10.03;2.83;;;22.90;44.90;;;;;;5067328;28;20480;-74
2022/05/12 10:14:05;;;;;;;4.37;2.80;;;22.70;45.90;;;;;;5063468;28;20924;-74
2022/05/12 10:16:34;;;;;;;4.70;3.10;;;22.50;46.20;;;;;;5062994;28;20489;-74
2022/05/12 10:19:06;;;;;;;4.00;2.50;;;22.50;47.90;;;;;;5061530;28;20454;-74
2022/05/12 10:21:39;;;;;;;8.53;2.40;;;22.50;47.90;;;;;;5063335;28;20469;-74
2022/05/12 10:24:14;;;;;;;3.67;2.77;;;22.40;48.00;;;;;;5061852;28;20492;-74
2022/05/12 10:26:45;;;;;;;5.27;2.53;;;22.30;48.30;;;;;;5063559;28;20537;-74
2022/05/12 10:29:26;;;;;;;4.93;2.47;;;22.30;48.10;;;;;;5058485;28;20446;-74
2022/05/12 10:32:01;;;;;;;8.30;3.67;;;22.30;49.00;;;;;;5056498;28;20515;-74
2022/05/12 10:34:42;;;;;;;7.40;2.70;;;22.10;49.00;;;;;;5056206;28;20438;-74
2022/05/12 10:37:24;;;;;;;4.13;2.70;;;22.40;48.90;;;;;;5056161;28;20506;-74
2022/05/12 10:40:01;;;;;;;4.63;2.90;;;23.10;47.60;;;;;;5056080;28;20437;-74
2022/05/12 10:42:37;;;;;;;11.53;2.87;;;23.80;45.80;;;;;;5055311;28;20488;-74
2022/05/12 10:45:22;;;;;;;3.43;2.50;;;24.40;43.40;;;;;;5056538;28;20492;-74
2022/05/12 10:48:11;;;;;;;4.43;2.93;;;25.20;42.90;;;;;;5055845;28;20438;-74
2022/05/12 10:50:47;;;;;;;6.10;2.90;;;25.90;42.00;;;;;;5056458;28;20440;-74
2022/05/12 10:53:24;;;;;;;3.50;2.27;;;26.40;41.20;;;;;;5056184;28;20923;-74
2022/05/12 10:56:03;;;;;;;12.50;3.00;;;27.10;38.90;;;;;;5057693;28;20445;-72
2022/05/12 10:58:39;;;;;;;2.67;1.70;;;27.50;37.40;;;;;;5056991;28;20442;-72
2022/05/12 11:01:15;;;;;;;6.13;2.37;;;27.80;32.90;;;;;;5057856;28;20473;-72
2022/05/12 11:03:48;;;;;;;3.90;2.77;;;28.20;31.90;;;;;;5056519;28;20516;-73
2022/05/12 11:06:20;;;;;;;4.90;2.03;;;28.20;31.10;;;;;;5057339;28;20433;-73
2022/05/12 11:08:50;;;;;;;4.30;2.50;;;28.30;32.30;;;;;;5056203;28;20441;-73
2022/05/12 11:11:22;;;;;;;7.90;2.33;;;28.50;31.40;;;;;;5056058;28;20469;-73
2022/05/12 11:13:55;;;;;;;5.30;2.80;;;29.20;31.40;;;;;;5060662;28;20469;-73
2022/05/12 11:16:26;;;;;;;5.40;3.00;;;28.70;31.30;;;;;;5061149;28;20446;-73
2022/05/12 11:19:02;;;;;;;4.47;2.40;;;28.10;33.90;;;;;;5058858;28;20430;-73
2022/05/12 11:21:31;;;;;;;5.03;2.73;;;28.00;35.00;;;;;;5061980;28;20481;-74
2022/05/12 11:24:17;;;;;;;2.77;2.47;;;27.60;35.80;;;;;;5058079;28;20489;-74
2022/05/12 11:26:58;;;;;;;4.00;2.47;;;27.80;33.10;;;;;;5059316;28;20438;-74
2022/05/12 11:29:44;;;;;;;2.93;2.73;;;27.70;34.90;;;;;;5058412;28;20426;-74
2022/05/12 11:32:37;;;;;;;4.13;2.70;;;27.20;35.60;;;;;;5059218;28;20457;-74
2022/05/12 11:35:07;;;;;;;3.77;2.30;;;27.00;34.90;;;;;;5058019;28;20426;-74
2022/05/12 11:37:53;;;;;;;3.70;2.37;;;26.50;35.80;;;;;;5057269;28;20445;-74
2022/05/12 11:40:54;;;;;;;5.03;2.70;;;26.60;37.50;;;;;;5057329;28;20487;-74
2022/05/12 11:46:37;;;;;;;3.97;2.20;;;28.20;31.10;;;;;;5060147;28;20413;-74
2022/05/12 11:49:09;;;;;;;3.60;2.30;;;29.20;31.00;;;;;;5059757;28;20441;-74
2022/05/12 11:51:45;;;;;;;3.40;2.40;;;30.00;28.60;;;;;;5057895;28;20482;-74
2022/05/12 11:54:23;;;;;;;4.13;2.20;;;30.20;28.50;;;;;;5060199;28;20425;-74
2022/05/12 11:56:53;;;;;;;2.97;2.20;;;30.80;28.10;;;;;;5061368;28;20468;-74
2022/05/12 11:59:46;;;;;;;3.80;1.90;;;31.00;27.80;;;;;;5062192;28;20449;-74
2022/05/12 12:02:53;;;;;;;3.97;2.57;;;31.30;27.00;;;;;;5065073;28;20533;-74
2022/05/12 12:06:03;;;;;;;3.50;1.97;;;31.50;26.40;;;;;;5065604;28;20457;-74
2022/05/12 12:08:46;;;;;;;3.43;2.37;;;31.70;26.20;;;;;;5052013;28;20489;-74
2022/05/12 12:11:30;;;;;;;2.33;2.13;;;31.80;26.70;;;;;;5064905;28;20488;-74
2022/05/12 12:13:59;;;;;;;4.50;2.73;;;32.20;25.90;;;;;;5069851;28;20422;-75
2022/05/12 12:16:28;;;;;;;4.77;2.33;;;31.40;25.90;;;;;;5063592;28;20955;-74
2022/05/12 12:19:03;;;;;;;4.00;2.50;;;30.80;27.50;;;;;;5069033;28;20493;-74
2022/05/12 12:21:54;;;;;;;5.00;2.37;;;30.80;27.10;;;;;;5072200;28;20493;-75
2022/05/12 12:24:59;;;;;;;2.83;2.57;;;30.30;26.80;;;;;;5069304;28;20516;-75
2022/05/12 12:28:02;;;;;;;4.20;3.07;;;29.80;28.80;;;;;;5068182;28;20442;-75
2022/05/12 12:31:05;;;;;;;3.50;2.70;;;29.30;28.70;;;;;;5068488;28;20450;-74
2022/05/12 12:34:01;;;;;;;4.00;2.43;;;28.30;29.50;;;;;;5055814;28;20971;-74
2022/05/12 12:36:44;;;;;;;4.80;2.90;;;28.10;29.80;;;;;;5067453;28;20512;-74
2022/05/12 12:39:13;;;;;;;3.33;2.23;;;28.80;29.20;;;;;;5070614;28;20432;-74
2022/05/12 12:41:44;;;;;;;7.73;2.27;;;29.50;28.10;;;;;;5070573;28;20462;-74
2022/05/12 12:44:20;;;;;;;3.70;2.53;;;30.20;27.50;;;;;;5066312;28;20492;-74
2022/05/12 12:47:12;;;;;;;3.30;2.90;;;31.00;27.20;;;;;;5070396;28;20419;-74
2022/05/12 12:49:51;;;;;;;3.53;2.53;;;31.30;25.40;;;;;;5070548;28;20532;-75
2022/05/12 12:52:19;;;;;;;3.83;2.50;;;31.10;25.50;;;;;;5070130;28;20491;-74
2022/05/12 12:57:48;;;;;;;3.70;2.93;;;30.10;27.20;;;;;;5069461;28;20401;-74
2022/05/12 13:00:24;;;;;;;6.97;3.70;;;29.00;27.70;;;;;;5074696;28;20437;-75
2022/05/12 13:02:59;;;;;;;5.20;2.60;;;28.40;28.90;;;;;;5074556;28;20493;-74
2022/05/12 13:05:26;;;;;;;2.73;2.20;;;28.10;28.80;;;;;;5068223;28;20454;-74
2022/05/12 13:07:56;;;;;;;3.67;2.67;;;28.10;29.80;;;;;;5068398;28;20418;-74
2022/05/12 13:10:23;;;;;;;3.50;2.70;;;28.20;29.40;;;;;;5071768;28;20437;-74
2022/05/12 13:12:55;;;;;;;4.13;2.50;;;28.50;28.40;;;;;;5071012;28;20466;-75
2022/05/12 13:15:24;;;;;;;3.60;2.20;;;28.50;28.40;;;;;;5070113;28;20449;-74
2022/05/12 13:17:55;;;;;;;6.07;2.87;;;29.00;29.20;;;;;;5071972;28;20884;-74
2022/05/12 13:20:26;;;;;;;5.63;2.50;;;29.30;27.90;;;;;;5072160;28;20509;-74
2022/05/12 13:22:57;;;;;;;6.23;3.37;;;29.40;28.50;;;;;;5071555;28;20461;-74
2022/05/12 13:25:27;;;;;;;2.90;2.50;;;29.20;28.40;;;;;;5074652;28;20446;-75
2022/05/12 13:27:54;;;;;;;4.00;2.50;;;29.40;28.30;;;;;;5072278;28;20454;-75